Time;durP1;ratioP1;P1;durP2;ratioP2;P2;SDS_P1;SDS_P2;PMS_P1;PMS_P2;Temp;Humidity;BMP_temperature;BMP_pressure;BME280_temperature;BME280_humidity;BME280_pressure;Samples;Min_cycle;Max_cycle;Signal;HPM_P1;HPM_P2
2022/06/06 00:00:05;;;;;;;31.95;18.85;;;16.10;99.90;;;;;;5019707;28;20123;-61
2022/06/06 00:02:38;;;;;;;34.13;19.70;;;16.10;99.90;;;;;;5019383;28;20037;-61
2022/06/06 00:05:05;;;;;;;33.85;19.63;;;16.10;99.90;;;;;;5019526;28;20030;-61
2022/06/06 00:07:31;;;;;;;33.53;19.20;;;16.00;99.90;;;;;;5019525;28;20034;-62
2022/06/06 00:09:57;;;;;;;33.88;20.17;;;16.00;99.90;;;;;;5019473;28;20053;-63
2022/06/06 00:12:24;;;;;;;33.92;20.42;;;16.00;99.90;;;;;;5019332;28;20034;-63
2022/06/06 00:14:50;;;;;;;39.63;22.65;;;16.10;99.90;;;;;;5019366;28;20056;-64
2022/06/06 00:17:16;;;;;;;39.83;21.90;;;16.00;99.90;;;;;;5018453;28;20457;-63
2022/06/06 00:19:42;;;;;;;39.67;21.85;;;15.90;99.90;;;;;;5018988;28;20029;-64
2022/06/06 00:22:08;;;;;;;40.97;22.92;;;15.80;99.90;;;;;;5019444;28;20049;-63
2022/06/06 00:24:34;;;;;;;42.72;23.98;;;15.90;99.90;;;;;;5001925;28;20041;-60
2022/06/06 00:26:59;;;;;;;45.10;24.05;;;16.10;99.90;;;;;;5018868;28;20037;-60
2022/06/06 00:29:27;;;;;;;43.75;23.90;;;16.10;99.90;;;;;;5018263;28;20058;-62
2022/06/06 00:34:52;;;;;;;46.22;24.90;;;15.90;99.90;;;;;;5018157;28;20433;-59
2022/06/06 00:37:31;;;;;;;45.30;23.90;;;16.10;99.90;;;;;;5018521;28;20053;-61
2022/06/06 00:39:58;;;;;;;44.72;23.50;;;16.20;99.90;;;;;;5018935;28;20026;-61
2022/06/06 00:42:34;;;;;;;45.85;25.23;;;16.10;99.90;;;;;;5018839;28;20040;-63
2022/06/06 00:45:22;;;;;;;50.70;27.25;;;15.90;99.90;;;;;;5019372;28;20034;-62
2022/06/06 00:47:56;;;;;;;46.83;27.15;;;15.90;99.90;;;;;;5017971;28;20029;-62
2022/06/06 00:50:32;;;;;;;53.13;28.73;;;15.80;99.90;;;;;;5019200;28;20077;-61
2022/06/06 00:53:00;;;;;;;56.10;29.83;;;15.80;99.90;;;;;;5018563;28;20364;-62
2022/06/06 00:55:31;;;;;;;53.10;29.77;;;15.80;99.90;;;;;;5018499;28;20038;-59
2022/06/06 00:58:05;;;;;;;55.20;30.13;;;16.00;99.90;;;;;;5018580;28;20029;-60
2022/06/06 01:00:31;;;;;;;55.38;29.35;;;16.10;99.90;;;;;;5018867;28;20374;-61
2022/06/06 01:03:01;;;;;;;56.40;28.98;;;16.00;99.90;;;;;;5018510;28;20033;-59
2022/06/06 01:05:27;;;;;;;52.53;29.23;;;16.00;99.90;;;;;;5018401;28;20120;-59
2022/06/06 01:07:53;;;;;;;51.55;28.08;;;16.00;99.90;;;;;;5017631;28;20442;-60
2022/06/06 01:10:21;;;;;;;48.50;27.27;;;16.10;99.90;;;;;;5018274;28;20128;-61
2022/06/06 01:12:50;;;;;;;43.95;26.63;;;16.00;99.90;;;;;;5018458;28;20353;-61
2022/06/06 01:15:18;;;;;;;45.17;26.88;;;15.80;99.90;;;;;;5018244;28;20067;-61
2022/06/06 01:18:05;;;;;;;45.85;24.42;;;15.70;99.90;;;;;;5018217;28;20030;-61
2022/06/06 01:20:53;;;;;;;46.28;24.60;;;15.60;99.90;;;;;;5017486;28;20294;-59
2022/06/06 01:23:31;;;;;;;36.70;21.88;;;15.50;99.90;;;;;;5017498;28;20034;-60
2022/06/06 01:26:15;;;;;;;36.75;22.40;;;15.40;99.90;;;;;;5018511;28;20389;-60
2022/06/06 01:29:08;;;;;;;38.33;21.23;;;15.40;99.90;;;;;;5017916;28;20294;-62
2022/06/06 01:31:48;;;;;;;37.70;21.58;;;15.40;99.90;;;;;;5018162;28;20121;-61
2022/06/06 01:34:28;;;;;;;36.65;21.63;;;15.30;99.90;;;;;;5017142;28;20306;-61
2022/06/06 01:36:56;;;;;;;37.13;21.48;;;15.30;99.90;;;;;;5018271;28;20053;-62
2022/06/06 01:39:24;;;;;;;39.25;21.42;;;15.40;99.90;;;;;;5017828;28;20057;-61
2022/06/06 01:42:06;;;;;;;36.28;20.98;;;15.40;99.90;;;;;;5017651;28;20030;-61
2022/06/06 01:44:53;;;;;;;41.25;22.02;;;15.30;99.90;;;;;;5018288;28;20044;-61
2022/06/06 01:47:35;;;;;;;32.30;20.23;;;15.40;99.90;;;;;;5017900;28;20030;-61
2022/06/06 01:50:04;;;;;;;35.55;19.92;;;15.30;99.90;;;;;;5017691;28;20022;-65
2022/06/06 01:52:29;;;;;;;33.15;18.75;;;15.40;99.90;;;;;;5017546;28;20026;-60
2022/06/06 01:54:57;;;;;;;32.60;18.90;;;15.20;99.90;;;;;;5017362;28;20030;-62
2022/06/06 01:57:24;;;;;;;32.55;19.13;;;15.20;99.90;;;;;;5017379;28;20077;-62
2022/06/06 01:59:52;;;;;;;29.90;18.00;;;15.20;99.90;;;;;;5017346;28;20105;-60
2022/06/06 02:02:18;;;;;;;33.10;18.08;;;15.20;99.90;;;;;;5017106;28;20046;-60
2022/06/06 02:04:44;;;;;;;33.20;17.60;;;15.30;99.90;;;;;;5016556;28;20034;-60
2022/06/06 02:07:11;;;;;;;28.63;16.83;;;15.20;99.90;;;;;;5017147;28;20029;-58
2022/06/06 02:09:36;;;;;;;25.10;16.02;;;15.10;99.90;;;;;;5017279;28;20048;-61
2022/06/06 02:12:03;;;;;;;25.52;15.10;;;15.00;99.90;;;;;;5017239;28;20038;-61
2022/06/06 02:14:29;;;;;;;24.33;15.32;;;15.10;99.90;;;;;;5017247;28;20073;-61
2022/06/06 02:16:55;;;;;;;25.98;15.57;;;15.00;99.90;;;;;;5017129;28;20028;-62
2022/06/06 02:19:21;;;;;;;26.83;15.10;;;15.00;99.90;;;;;;5017152;28;20481;-60
2022/06/06 02:21:47;;;;;;;30.88;17.00;;;14.90;99.90;;;;;;5016405;28;20117;-61
2022/06/06 02:24:12;;;;;;;28.02;16.88;;;14.90;99.90;;;;;;5017041;28;20077;-63
2022/06/06 02:26:38;;;;;;;28.10;16.65;;;14.90;99.90;;;;;;5016215;28;20037;-60
2022/06/06 02:29:05;;;;;;;30.90;16.80;;;14.90;99.90;;;;;;5016309;28;20038;-60
2022/06/06 02:31:37;;;;;;;27.08;16.08;;;15.00;99.90;;;;;;5017237;28;20022;-60
2022/06/06 02:34:05;;;;;;;26.55;15.95;;;14.90;99.90;;;;;;5016053;28;20038;-58
2022/06/06 02:36:31;;;;;;;25.42;15.98;;;14.80;99.90;;;;;;5017399;28;20033;-62
2022/06/06 02:38:57;;;;;;;26.92;15.68;;;14.70;99.90;;;;;;5016994;28;20022;-61
2022/06/06 02:41:25;;;;;;;27.83;16.48;;;14.60;99.90;;;;;;5017420;28;20095;-62
2022/06/06 02:43:52;;;;;;;25.80;15.85;;;14.50;99.90;;;;;;5016083;28;20033;-61
2022/06/06 02:46:18;;;;;;;26.23;15.80;;;14.40;99.90;;;;;;5016917;28;20137;-60
2022/06/06 02:48:44;;;;;;;24.17;15.38;;;14.40;99.90;;;;;;5017224;28;20413;-61
2022/06/06 02:51:10;;;;;;;25.23;14.70;;;14.30;99.90;;;;;;5016907;28;20519;-65
2022/06/06 02:53:36;;;;;;;25.85;14.85;;;14.30;99.90;;;;;;5016866;28;20030;-62
2022/06/06 02:56:03;;;;;;;24.30;14.00;;;14.30;99.90;;;;;;5016692;28;20049;-60
2022/06/06 02:58:29;;;;;;;24.52;14.27;;;14.20;99.90;;;;;;5016896;28;20390;-67
2022/06/06 03:01:05;;;;;;;22.98;14.27;;;14.20;99.90;;;;;;5015898;28;20137;-61
2022/06/06 03:03:31;;;;;;;24.02;14.77;;;14.30;99.90;;;;;;5016752;28;20413;-61
2022/06/06 03:06:09;;;;;;;25.30;14.20;;;14.20;99.90;;;;;;5016711;28;20052;-61
2022/06/06 03:08:54;;;;;;;25.95;13.73;;;14.00;99.90;;;;;;5016940;28;20440;-61
2022/06/06 03:11:47;;;;;;;25.02;14.50;;;14.00;99.90;;;;;;5016604;28;20041;-62
2022/06/06 03:14:44;;;;;;;27.25;13.80;;;14.00;99.90;;;;;;5016545;28;20045;-61
2022/06/06 03:23:31;;;;;;;20.20;12.38;;;13.80;99.90;;;;;;5016707;28;20026;-62
2022/06/06 03:26:29;;;;;;;18.02;12.25;;;13.70;99.90;;;;;;5016585;28;20061;-61
2022/06/06 03:28:55;;;;;;;17.67;11.63;;;13.60;99.90;;;;;;5017019;28;20401;-59
2022/06/06 03:31:56;;;;;;;20.63;12.00;;;13.60;99.90;;;;;;5016643;28;20057;-61
2022/06/06 03:34:49;;;;;;;17.13;11.23;;;13.50;99.90;;;;;;5016459;28;20045;-61
2022/06/06 03:37:34;;;;;;;;;;;13.50;99.90;;;;;;5016943;28;20040;-62
2022/06/06 03:40:16;;;;;;;17.02;10.90;;;13.60;99.90;;;;;;5016452;28;19909;-64
2022/06/06 03:43:10;;;;;;;17.80;11.43;;;13.60;99.90;;;;;;5016495;28;20139;-62
2022/06/06 03:45:51;;;;;;;17.45;10.20;;;13.50;99.90;;;;;;5017742;28;20091;-63
2022/06/06 03:48:23;;;;;;;15.13;9.52;;;13.50;99.90;;;;;;5019904;28;20471;-63
2022/06/06 03:51:03;;;;;;;14.77;9.85;;;13.40;99.90;;;;;;5018755;28;20041;-60
2022/06/06 03:53:36;;;;;;;17.13;9.45;;;13.40;99.90;;;;;;5018761;28;20044;-63
2022/06/06 03:56:18;;;;;;;16.17;9.13;;;13.40;99.90;;;;;;5019652;28;20042;-63
2022/06/06 03:58:45;;;;;;;13.25;8.23;;;13.60;99.90;;;;;;5019739;28;20030;-64
2022/06/06 04:01:13;;;;;;;12.30;7.20;;;13.70;99.90;;;;;;5019426;28;20049;-61
2022/06/06 04:03:42;;;;;;;13.15;7.18;;;13.70;99.90;;;;;;5019664;28;20026;-60
2022/06/06 04:06:09;;;;;;;10.68;6.50;;;13.60;99.90;;;;;;5019513;28;20065;-63
2022/06/06 04:08:35;;;;;;;10.10;5.72;;;13.50;99.90;;;;;;5019454;28;20310;-65
2022/06/06 04:11:08;;;;;;;13.60;6.95;;;13.50;99.90;;;;;;5019418;28;20092;-61
2022/06/06 04:13:42;;;;;;;10.07;6.85;;;13.50;99.90;;;;;;5019468;28;20040;-60
2022/06/06 04:16:11;;;;;;;12.52;6.30;;;13.60;99.90;;;;;;5019320;28;20366;-64
2022/06/06 04:18:51;;;;;;;11.65;6.72;;;13.60;99.90;;;;;;5019329;28;20029;-61
2022/06/06 04:21:23;;;;;;;8.60;5.63;;;13.60;99.90;;;;;;5019776;28;20318;-60
2022/06/06 04:24:07;;;;;;;7.85;5.88;;;13.60;99.90;;;;;;5019731;28;20337;-62
2022/06/06 04:26:47;;;;;;;8.73;5.38;;;13.70;99.90;;;;;;5019428;28;20038;-64
2022/06/06 04:29:30;;;;;;;6.75;5.40;;;13.50;99.90;;;;;;5019079;28;20041;-62
2022/06/06 04:32:24;;;;;;;11.88;5.30;;;13.60;99.90;;;;;;5019146;28;20061;-63
2022/06/06 04:35:00;;;;;;;7.85;4.70;;;13.60;99.90;;;;;;5018985;28;20030;-62
2022/06/06 04:37:45;;;;;;;8.18;4.22;;;13.50;99.90;;;;;;5018967;28;20397;-62
2022/06/06 04:40:46;;;;;;;6.18;4.20;;;13.50;99.90;;;;;;5018909;28;20101;-61
2022/06/06 04:43:41;;;;;;;6.32;4.05;;;13.60;99.90;;;;;;5016677;28;20406;-63
2022/06/06 04:46:40;;;;;;;6.22;4.00;;;13.60;99.90;;;;;;5018784;28;20131;-62
2022/06/06 04:49:07;;;;;;;6.65;4.32;;;13.50;99.90;;;;;;5019146;28;20029;-63
2022/06/06 04:51:34;;;;;;;6.07;4.53;;;13.30;99.90;;;;;;5018622;28;20041;-62
2022/06/06 04:54:01;;;;;;;6.28;4.07;;;13.30;99.90;;;;;;5017713;28;20076;-62
2022/06/06 04:56:27;;;;;;;7.53;4.50;;;13.40;99.90;;;;;;5018607;28;20277;-62
2022/06/06 04:58:57;;;;;;;7.95;4.97;;;13.50;99.90;;;;;;5017989;28;20038;-61
2022/06/06 05:01:24;;;;;;;6.32;4.65;;;13.60;99.90;;;;;;5018324;28;20433;-63
2022/06/06 05:03:50;;;;;;;7.03;5.03;;;13.80;99.90;;;;;;5018432;28;20049;-64
2022/06/06 05:06:27;;;;;;;9.82;5.18;;;13.90;99.90;;;;;;5018546;28;20030;-63
2022/06/06 05:09:11;;;;;;;7.05;5.50;;;13.90;99.90;;;;;;5018341;28;20021;-63
2022/06/06 05:11:42;;;;;;;9.50;5.13;;;13.60;99.90;;;;;;5018445;28;20029;-62
2022/06/06 05:14:20;;;;;;;6.28;4.20;;;13.60;99.90;;;;;;5018149;28;20301;-64
2022/06/06 05:17:27;;;;;;;10.75;4.68;;;13.60;99.90;;;;;;5017542;28;20034;-63
2022/06/06 05:19:59;;;;;;;8.13;4.82;;;13.60;99.90;;;;;;5000606;28;20095;-61
2022/06/06 05:22:55;;;;;;;8.90;4.95;;;13.50;99.90;;;;;;5018158;28;20100;-63
2022/06/06 05:25:45;;;;;;;5.57;4.40;;;13.60;99.90;;;;;;5017256;28;20044;-63
2022/06/06 05:28:32;;;;;;;5.80;4.25;;;13.90;99.90;;;;;;5017986;28;20308;-61
2022/06/06 05:31:08;;;;;;;7.50;3.80;;;14.10;99.90;;;;;;5017014;28;20033;-62
2022/06/06 05:33:41;;;;;;;4.88;3.60;;;14.40;99.90;;;;;;5017966;28;20091;-64
2022/06/06 05:36:36;;;;;;;7.10;4.38;;;14.50;99.90;;;;;;5017758;28;20041;-63
2022/06/06 05:39:20;;;;;;;3.53;3.17;;;14.20;99.90;;;;;;5017066;28;20456;-63
2022/06/06 05:42:01;;;;;;;4.90;3.63;;;14.20;99.90;;;;;;5018058;28;20040;-63
2022/06/06 05:44:48;;;;;;;7.20;3.40;;;14.20;99.90;;;;;;5017717;28;20097;-63
2022/06/06 05:47:23;;;;;;;6.90;3.28;;;14.30;99.90;;;;;;5017854;28;20041;-63
2022/06/06 05:50:29;;;;;;;5.60;3.47;;;14.00;99.90;;;;;;5017337;28;20041;-63
2022/06/06 05:53:36;;;;;;;4.22;3.00;;;14.10;99.90;;;;;;5017314;28;20116;-63
2022/06/06 05:56:43;;;;;;;4.60;3.15;;;14.20;99.90;;;;;;4977030;28;20239;-63
2022/06/06 05:59:35;;;;;;;4.32;2.60;;;14.20;99.90;;;;;;4948223;28;20041;-62
2022/06/06 06:02:14;;;;;;;7.32;3.45;;;14.20;99.90;;;;;;5015040;28;20045;-64
2022/06/06 06:04:52;;;;;;;4.18;2.60;;;14.40;99.90;;;;;;5017324;28;20114;-64
2022/06/06 06:07:36;;;;;;;5.47;2.50;;;14.60;99.90;;;;;;5017294;28;20030;-61
2022/06/06 06:10:24;;;;;;;3.45;2.10;;;14.50;99.90;;;;;;5017396;28;20377;-62
2022/06/06 06:13:31;;;;;;;3.85;2.00;;;14.70;99.90;;;;;;5017448;28;20029;-63
2022/06/06 06:16:00;;;;;;;3.65;2.20;;;14.60;99.90;;;;;;4984992;28;20094;-64
2022/06/06 06:18:52;;;;;;;4.93;2.22;;;14.60;99.90;;;;;;5017243;28;20073;-63
2022/06/06 06:21:23;;;;;;;3.92;2.00;;;14.60;99.90;;;;;;5017177;28;20036;-62
2022/06/06 06:23:58;;;;;;;3.03;1.92;;;15.00;99.90;;;;;;5016721;28;20409;-58
2022/06/06 06:26:28;;;;;;;5.07;1.90;;;15.20;99.90;;;;;;5017156;28;20026;-63
2022/06/06 06:28:56;;;;;;;3.85;1.73;;;15.00;99.90;;;;;;5017035;28;20390;-60
2022/06/06 06:32:08;;;;;;;5.75;1.73;;;15.20;99.90;;;;;;5017017;28;20121;-60
2022/06/06 06:34:44;;;;;;;4.05;1.83;;;15.20;99.90;;;;;;5002290;28;20037;-62
2022/06/06 06:37:47;;;;;;;6.05;1.75;;;15.30;99.90;;;;;;5017054;28;20030;-62
2022/06/06 06:40:30;;;;;;;6.68;2.08;;;15.30;99.90;;;;;;5017061;28;20026;-60
2022/06/06 06:43:39;;;;;;;6.88;1.60;;;15.50;99.90;;;;;;5017449;28;20425;-63
2022/06/06 06:46:17;;;;;;;3.03;1.30;;;15.70;99.90;;;;;;5017110;28;20030;-61
2022/06/06 06:48:45;;;;;;;3.78;1.30;;;15.70;99.90;;;;;;5017418;28;20072;-64
2022/06/06 06:51:43;;;;;;;5.13;1.50;;;15.60;99.90;;;;;;5016927;28;20030;-63
2022/06/06 06:54:30;;;;;;;3.65;1.50;;;15.70;99.90;;;;;;5017398;28;20088;-60
2022/06/06 06:57:43;;;;;;;2.60;1.00;;;16.00;99.90;;;;;;5017267;28;20095;-61
2022/06/06 07:00:11;;;;;;;1.70;1.37;;;16.00;99.90;;;;;;4976597;28;20043;-60
2022/06/06 07:09:03;;;;;;;3.53;1.40;;;16.20;99.90;;;;;;5016051;28;20120;-60
2022/06/06 07:12:13;;;;;;;3.17;1.20;;;16.20;99.90;;;;;;5016763;28;20108;-64
2022/06/06 07:15:08;;;;;;;6.63;0.90;;;16.40;99.90;;;;;;5015991;28;20041;-61
2022/06/06 07:17:42;;;;;;;3.47;1.10;;;16.30;99.90;;;;;;5016993;28;20330;-61
2022/06/06 07:20:10;;;;;;;1.75;1.05;;;16.40;99.90;;;;;;5016942;28;20294;-63
2022/06/06 07:23:04;;;;;;;3.60;1.10;;;16.40;99.90;;;;;;5020493;28;20041;-64
2022/06/06 07:25:38;;;;;;;1.85;0.90;;;16.30;99.90;;;;;;5020659;28;20033;-61
2022/06/06 07:28:10;;;;;;;6.10;1.42;;;16.30;99.90;;;;;;5020367;28;20314;-59
2022/06/06 07:30:41;;;;;;;2.67;1.10;;;16.40;99.90;;;;;;5020239;28;20037;-60
2022/06/06 07:33:38;;;;;;;1.90;1.05;;;16.30;99.90;;;;;;5020207;28;20120;-62
2022/06/06 07:36:19;;;;;;;3.78;1.10;;;16.50;99.90;;;;;;5003793;28;20042;-64
2022/06/06 07:39:23;;;;;;;2.70;1.30;;;16.70;99.90;;;;;;5020063;28;20034;-59
2022/06/06 07:42:27;;;;;;;4.82;1.10;;;16.70;99.90;;;;;;5002867;28;20041;-64
2022/06/06 07:45:35;;;;;;;7.47;2.08;;;16.60;99.90;;;;;;5019271;28;20026;-60
2022/06/06 07:48:27;;;;;;;3.72;1.38;;;16.50;99.90;;;;;;5007130;28;20116;-59
2022/06/06 07:51:14;;;;;;;4.65;1.23;;;16.50;99.90;;;;;;5019825;28;20176;-61
2022/06/06 07:53:52;;;;;;;2.72;1.02;;;16.80;99.90;;;;;;5019831;28;20283;-61
2022/06/06 07:56:25;;;;;;;3.08;0.80;;;17.00;99.90;;;;;;5019745;28;20385;-64
2022/06/06 07:59:09;;;;;;;2.45;1.10;;;16.80;99.90;;;;;;5019004;28;20126;-66
2022/06/06 08:02:12;;;;;;;2.85;0.95;;;16.90;99.90;;;;;;5019559;28;20369;-65
2022/06/06 08:04:41;;;;;;;2.10;0.98;;;17.00;99.90;;;;;;5019657;28;20040;-61
2022/06/06 08:07:31;;;;;;;3.75;0.93;;;17.10;99.90;;;;;;5019509;28;20052;-64
2022/06/06 08:10:17;;;;;;;4.10;1.00;;;17.20;99.90;;;;;;5019454;28;20445;-63
2022/06/06 08:13:01;;;;;;;1.30;0.90;;;17.30;99.90;;;;;;5019380;28;20112;-62
2022/06/06 08:15:59;;;;;;;2.88;1.00;;;17.10;99.90;;;;;;5019287;28;20115;-63
2022/06/06 08:18:48;;;;;;;3.78;1.10;;;17.20;99.90;;;;;;5019179;28;20037;-62
2022/06/06 08:21:16;;;;;;;2.65;1.10;;;17.30;99.90;;;;;;5019299;28;20042;-61
2022/06/06 08:23:44;;;;;;;1.90;1.05;;;17.60;99.90;;;;;;5019242;28;20095;-61
2022/06/06 08:26:11;;;;;;;2.05;0.90;;;17.90;99.90;;;;;;5019132;28;20046;-62
2022/06/06 08:28:40;;;;;;;3.10;1.10;;;17.90;99.90;;;;;;5019191;28;20309;-59
2022/06/06 08:31:07;;;;;;;3.70;0.80;;;17.50;99.90;;;;;;5018936;28;20026;-59
2022/06/06 08:33:33;;;;;;;3.72;0.90;;;17.50;99.90;;;;;;5017308;28;20037;-62
2022/06/06 08:36:18;;;;;;;2.50;0.90;;;17.60;99.90;;;;;;5019005;28;20034;-60
2022/06/06 08:38:59;;;;;;;2.50;1.05;;;17.70;99.90;;;;;;5019093;28;20030;-61
2022/06/06 08:42:13;;;;;;;3.33;1.00;;;18.00;99.90;;;;;;5018045;28;20029;-58
2022/06/06 08:44:51;;;;;;;3.15;0.90;;;17.70;99.90;;;;;;5005125;28;20388;-62
2022/06/06 08:47:29;;;;;;;3.92;1.15;;;17.70;99.90;;;;;;5018893;28;20092;-58
2022/06/06 08:53:41;;;;;;;6.28;1.25;;;17.80;99.90;;;;;;5018488;28;20412;-64
2022/06/06 08:56:13;;;;;;;2.75;1.10;;;18.00;99.90;;;;;;5018535;28;20030;-62
2022/06/06 08:58:47;;;;;;;1.95;1.00;;;18.10;99.90;;;;;;5018714;28;20476;-62
2022/06/06 09:01:32;;;;;;;2.45;1.20;;;18.00;99.90;;;;;;5017655;28;20103;-62
2022/06/06 09:04:22;;;;;;;2.22;0.93;;;17.80;99.90;;;;;;5018627;28;20076;-61
2022/06/06 09:07:34;;;;;;;1.67;1.00;;;17.20;99.90;;;;;;5018497;28;20352;-59
2022/06/06 09:10:12;;;;;;;4.38;1.42;;;17.40;99.90;;;;;;4981520;28;20073;-62
2022/06/06 09:12:50;;;;;;;2.08;1.00;;;17.70;99.90;;;;;;5018492;28;20037;-60
2022/06/06 09:15:35;;;;;;;2.97;1.00;;;17.80;99.90;;;;;;5018274;28;20386;-61
2022/06/06 09:18:03;;;;;;;1.60;1.10;;;17.60;99.90;;;;;;5018212;28;20068;-59
2022/06/06 09:20:59;;;;;;;2.35;1.27;;;17.90;99.90;;;;;;5018177;28;20026;-60
2022/06/06 09:24:05;;;;;;;4.95;1.38;;;17.80;99.90;;;;;;5018345;28;20065;-61
2022/06/06 09:26:53;;;;;;;3.22;1.15;;;17.40;99.90;;;;;;5017987;28;20056;-62
2022/06/06 09:29:37;;;;;;;2.72;1.10;;;17.60;99.90;;;;;;5017946;28;20435;-61
2022/06/06 09:32:21;;;;;;;2.03;1.10;;;17.80;99.90;;;;;;5017709;28;20076;-61
2022/06/06 09:35:08;;;;;;;3.53;1.10;;;17.60;99.90;;;;;;5017781;28;20022;-63
2022/06/06 09:38:15;;;;;;;2.60;0.82;;;17.80;99.90;;;;;;5017622;28;20337;-60
2022/06/06 09:41:20;;;;;;;4.97;0.90;;;18.60;99.90;;;;;;5017156;28;20034;-58
2022/06/06 09:44:14;;;;;;;1.45;0.70;;;18.60;99.90;;;;;;5016464;28;20167;-59
2022/06/06 09:47:08;;;;;;;1.40;0.65;;;18.60;99.90;;;;;;5017581;28;20052;-62
2022/06/06 09:49:59;;;;;;;4.63;0.80;;;18.80;99.90;;;;;;5017587;28;20053;-61
2022/06/06 09:52:33;;;;;;;3.15;0.70;;;18.60;99.90;;;;;;5017629;28;20040;-60
2022/06/06 10:01:32;;;;;;;3.65;0.88;;;18.50;99.90;;;;;;5017209;28;19918;-59
2022/06/06 10:04:20;;;;;;;2.65;0.70;;;17.90;99.90;;;;;;5016455;28;20037;-59
2022/06/06 10:06:57;;;;;;;1.20;0.65;;;18.00;99.90;;;;;;5017278;28;20038;-58
2022/06/06 10:09:41;;;;;;;2.80;0.80;;;18.00;99.90;;;;;;5017294;28;20368;-61
2022/06/06 10:12:44;;;;;;;2.20;0.80;;;17.80;99.90;;;;;;5017134;28;20116;-61
2022/06/06 10:15:33;;;;;;;3.03;1.20;;;17.80;99.90;;;;;;4983939;28;20056;-61
2022/06/06 10:18:24;;;;;;;1.10;0.90;;;17.60;99.90;;;;;;5016640;28;20084;-61
2022/06/06 10:21:14;;;;;;;4.25;0.90;;;18.20;99.90;;;;;;5017061;28;20049;-60
2022/06/06 10:23:58;;;;;;;1.67;0.70;;;18.50;99.90;;;;;;5016927;28;20433;-64
2022/06/06 10:26:35;;;;;;;2.45;0.90;;;18.50;99.90;;;;;;5017066;28;20386;-61
2022/06/06 10:30:10;;;;;;;3.28;1.25;;;18.60;99.90;;;;;;5017211;28;20026;-63
2022/06/06 10:32:40;;;;;;;4.10;0.77;;;18.80;99.90;;;;;;5016889;28;20088;-62
2022/06/06 10:35:24;;;;;;;2.35;0.70;;;18.60;99.90;;;;;;5017508;28;20033;-60
2022/06/06 10:38:19;;;;;;;1.58;0.60;;;18.70;99.90;;;;;;5017050;28;20045;-59
2022/06/06 10:41:05;;;;;;;4.05;0.70;;;18.50;99.90;;;;;;5017311;28;20022;-64
2022/06/06 10:44:10;;;;;;;2.60;0.63;;;18.20;99.90;;;;;;5016940;28;20022;-62
2022/06/06 10:46:57;;;;;;;1.20;0.65;;;18.30;99.90;;;;;;5015018;28;20207;-59
2022/06/06 10:49:41;;;;;;;2.05;0.60;;;18.30;99.90;;;;;;5016816;28;20050;-63
2022/06/06 10:52:11;;;;;;;2.88;0.95;;;18.60;99.90;;;;;;5016688;28;20072;-62
2022/06/06 10:55:15;;;;;;;1.58;0.70;;;19.10;99.90;;;;;;5015747;28;20318;-64
2022/06/06 10:57:56;;;;;;;3.95;0.98;;;20.00;99.90;;;;;;5020635;28;20337;-64
2022/06/06 11:01:06;;;;;;;2.63;0.90;;;19.90;99.90;;;;;;5020458;28;20109;-66
2022/06/06 11:04:00;;;;;;;3.20;0.70;;;19.80;99.90;;;;;;4960710;29;20047;-60
2022/06/06 11:06:47;;;;;;;1.83;0.50;;;19.40;99.90;;;;;;5019524;28;20038;-61
2022/06/06 11:09:31;;;;;;;4.47;0.82;;;19.40;99.90;;;;;;5021121;28;20076;-59
2022/06/06 11:12:19;;;;;;;5.75;0.77;;;19.20;99.90;;;;;;5019829;28;20026;-64
2022/06/06 11:14:45;;;;;;;2.05;0.70;;;19.30;99.90;;;;;;5020356;28;20026;-60
2022/06/06 11:17:48;;;;;;;5.63;0.80;;;19.50;99.90;;;;;;5019471;28;20053;-60
2022/06/06 11:20:35;;;;;;;4.18;0.70;;;19.40;99.90;;;;;;5020808;28;20055;-59
2022/06/06 11:23:11;;;;;;;1.95;0.82;;;19.30;99.90;;;;;;5020268;28;20026;-60
2022/06/06 11:25:44;;;;;;;3.22;0.68;;;19.60;99.90;;;;;;5020240;28;20033;-61
2022/06/06 11:28:41;;;;;;;2.05;0.80;;;19.70;99.90;;;;;;5019483;28;20044;-65
2022/06/06 11:31:36;;;;;;;1.42;0.70;;;19.60;99.90;;;;;;5020357;28;20049;-62
2022/06/06 11:34:47;;;;;;;1.85;0.80;;;20.20;99.90;;;;;;5020226;28;20038;-61
2022/06/06 11:38:06;;;;;;;1.88;0.68;;;20.60;99.90;;;;;;5004507;28;20048;-64
2022/06/06 11:41:00;;;;;;;1.67;0.63;;;20.40;99.90;;;;;;5019281;28;20025;-62
2022/06/06 11:43:47;;;;;;;3.17;0.70;;;20.20;99.90;;;;;;5020017;28;20088;-59
2022/06/06 11:46:35;;;;;;;1.80;0.80;;;19.40;99.90;;;;;;5019867;28;20034;-61
2022/06/06 11:49:43;;;;;;;1.92;0.80;;;18.30;99.90;;;;;;5019857;28;20302;-60
2022/06/06 11:52:47;;;;;;;4.25;0.70;;;18.10;99.90;;;;;;5006016;28;20053;-61
2022/06/06 11:55:43;;;;;;;2.03;0.80;;;17.80;99.90;;;;;;4996889;28;20042;-60
2022/06/06 11:58:50;;;;;;;1.85;0.82;;;18.00;99.90;;;;;;5018919;28;20398;-62
2022/06/06 12:01:40;;;;;;;1.42;0.77;;;18.30;99.90;;;;;;5019410;28;20038;-60
2022/06/06 12:04:27;;;;;;;7.57;0.85;;;18.30;99.90;;;;;;5020073;28;20026;-61
2022/06/06 12:07:13;;;;;;;2.70;0.68;;;18.50;99.90;;;;;;5019230;28;20083;-61
2022/06/06 12:09:48;;;;;;;2.33;0.50;;;18.70;99.90;;;;;;5020017;28;20064;-59
2022/06/06 12:12:14;;;;;;;4.75;0.70;;;18.60;99.90;;;;;;5019557;28;20026;-62
2022/06/06 12:14:50;;;;;;;2.13;0.70;;;18.20;99.90;;;;;;5019267;28;20034;-61
2022/06/06 12:17:21;;;;;;;1.48;0.70;;;18.40;99.90;;;;;;5019202;28;20026;-59
2022/06/06 12:20:05;;;;;;;1.52;0.70;;;18.40;99.90;;;;;;5018633;28;20041;-59
2022/06/06 12:23:02;;;;;;;2.00;0.60;;;18.70;99.90;;;;;;5019191;28;20060;-60
2022/06/06 12:25:54;;;;;;;1.58;0.65;;;19.10;99.90;;;;;;5018964;28;20025;-59
2022/06/06 12:28:54;;;;;;;1.65;0.88;;;19.20;99.90;;;;;;5019611;28;20042;-62
2022/06/06 12:31:48;;;;;;;2.20;0.80;;;19.20;99.90;;;;;;5019048;28;20040;-62
2022/06/06 12:34:20;;;;;;;3.53;0.73;;;18.80;99.90;;;;;;5002056;28;20309;-60
2022/06/06 12:36:45;;;;;;;2.20;0.90;;;18.60;99.90;;;;;;5018211;28;20026;-62
2022/06/06 12:39:45;;;;;;;1.98;0.60;;;18.20;99.90;;;;;;5018233;28;20037;-58
2022/06/06 12:42:34;;;;;;;3.15;1.20;;;17.90;99.90;;;;;;5018831;28;20460;-58
2022/06/06 12:45:12;;;;;;;4.05;1.17;;;17.90;99.90;;;;;;5018637;28;20049;-59
2022/06/06 12:48:26;;;;;;;1.17;0.63;;;17.80;99.90;;;;;;5018750;28;20083;-61
2022/06/06 12:51:02;;;;;;;1.70;0.70;;;17.80;99.90;;;;;;4996756;28;20046;-60
2022/06/06 12:53:34;;;;;;;2.38;0.60;;;17.90;99.90;;;;;;5018030;28;20034;-60
2022/06/06 12:56:25;;;;;;;4.57;0.70;;;17.90;99.90;;;;;;5017799;28;20041;-59
2022/06/06 12:59:08;;;;;;;2.25;0.60;;;18.50;99.90;;;;;;5018500;28;20037;-59
2022/06/06 13:02:08;;;;;;;3.60;0.70;;;18.90;99.90;;;;;;5018596;28;20046;-60
2022/06/06 13:05:12;;;;;;;2.72;0.90;;;18.90;99.90;;;;;;5019050;28;20065;-60
2022/06/06 13:07:53;;;;;;;2.40;0.70;;;18.50;99.90;;;;;;5018557;28;20041;-59
2022/06/06 13:10:29;;;;;;;2.25;0.80;;;18.40;99.90;;;;;;5018844;28;20042;-58
2022/06/06 13:13:16;;;;;;;1.33;0.80;;;18.20;99.90;;;;;;5018285;28;20045;-61
2022/06/06 13:15:53;;;;;;;4.20;0.90;;;18.20;99.90;;;;;;5018274;28;20117;-59
2022/06/06 13:18:48;;;;;;;4.18;1.13;;;18.20;99.90;;;;;;5018013;28;20100;-61
2022/06/06 13:21:42;;;;;;;2.47;0.80;;;18.30;99.90;;;;;;5012696;28;20053;-61
2022/06/06 13:24:07;;;;;;;3.30;0.93;;;18.30;99.90;;;;;;5018070;28;20030;-61
2022/06/06 13:26:38;;;;;;;3.95;0.80;;;18.40;99.90;;;;;;5017991;28;20076;-59
2022/06/06 13:29:05;;;;;;;4.65;0.70;;;18.40;99.90;;;;;;5018581;28;20045;-60
2022/06/06 13:32:01;;;;;;;3.50;0.80;;;18.80;99.90;;;;;;5017044;28;20061;-60
2022/06/06 13:34:50;;;;;;;2.40;0.90;;;19.30;99.90;;;;;;5018501;28;20040;-61
2022/06/06 13:37:24;;;;;;;3.30;0.70;;;20.00;99.90;;;;;;5012611;28;20044;-62
2022/06/06 13:40:20;;;;;;;4.18;0.80;;;20.00;99.90;;;;;;5017999;28;20101;-60
2022/06/06 13:43:04;;;;;;;2.65;0.70;;;19.90;99.90;;;;;;5017834;28;20342;-59
2022/06/06 13:46:05;;;;;;;1.70;0.68;;;19.60;99.90;;;;;;5017969;28;20042;-60
2022/06/06 13:49:10;;;;;;;1.65;0.70;;;19.40;99.90;;;;;;5017768;28;20084;-61
2022/06/06 13:52:00;;;;;;;2.00;0.70;;;19.50;99.90;;;;;;5017611;28;20068;-61
2022/06/06 13:54:32;;;;;;;2.20;0.80;;;19.50;99.90;;;;;;5017549;28;20291;-61
2022/06/06 13:57:04;;;;;;;5.47;1.33;;;19.50;99.90;;;;;;5017594;28;20293;-63
2022/06/06 13:59:55;;;;;;;5.88;0.93;;;19.50;99.90;;;;;;5017559;28;20033;-59
2022/06/06 14:02:36;;;;;;;2.10;0.70;;;19.50;99.90;;;;;;5017283;28;20064;-59
2022/06/06 14:05:40;;;;;;;2.05;0.75;;;19.20;99.90;;;;;;5016526;28;20095;-57
2022/06/06 14:08:13;;;;;;;3.00;1.33;;;18.90;99.90;;;;;;5017445;28;20030;-59
2022/06/06 14:10:52;;;;;;;2.85;0.82;;;18.80;99.90;;;;;;5017320;28;20044;-61
2022/06/06 14:13:42;;;;;;;1.45;0.80;;;18.80;99.90;;;;;;5017399;28;20045;-60
2022/06/06 14:16:21;;;;;;;3.28;0.68;;;18.80;99.90;;;;;;5016395;28;20107;-60
2022/06/06 14:18:52;;;;;;;3.10;1.58;;;18.50;99.90;;;;;;5017720;28;20029;-59